Time;durP1;ratioP1;P1;durP2;ratioP2;P2;SDS_P1;SDS_P2;PMS_P1;PMS_P2;Temp;Humidity;BMP_temperature;BMP_pressure;BME280_temperature;BME280_humidity;BME280_pressure;Samples;Min_cycle;Max_cycle;Signal;HPM_P1;HPM_P2
2024/03/01 00:01:45;;;;;;;16.87;12.20;;;10.40;89.20;;;;;;5073534;28;20809;-56
2024/03/01 00:04:12;;;;;;;16.20;13.17;;;10.40;89.80;;;;;;5073429;28;20440;-56
2024/03/01 00:06:39;;;;;;;16.53;12.57;;;10.40;90.00;;;;;;5073515;28;20455;-56
2024/03/01 00:09:06;;;;;;;18.77;13.40;;;10.40;90.10;;;;;;5073465;28;20824;-56
2024/03/01 00:11:32;;;;;;;18.17;12.80;;;10.30;90.20;;;;;;5073307;28;20516;-56
2024/03/01 00:13:59;;;;;;;14.10;11.23;;;10.30;90.20;;;;;;5073244;28;20479;-56
2024/03/01 00:16:26;;;;;;;16.10;12.00;;;10.30;90.40;;;;;;5073239;28;20436;-56
2024/03/01 00:18:54;;;;;;;16.20;12.17;;;10.30;90.40;;;;;;5073571;28;20441;-56
2024/03/01 00:21:21;;;;;;;15.27;12.10;;;10.30;90.50;;;;;;5074139;28;20448;-56
2024/03/01 00:23:48;;;;;;;17.63;12.60;;;10.30;90.50;;;;;;5073203;28;20471;-56
2024/03/01 00:26:15;;;;;;;16.70;12.43;;;10.30;90.70;;;;;;5073237;28;20445;-56
2024/03/01 00:28:42;;;;;;;16.10;11.93;;;10.20;90.70;;;;;;5073366;28;20441;-56
2024/03/01 00:31:09;;;;;;;18.20;12.40;;;10.20;90.80;;;;;;5072877;28;20449;-56
2024/03/01 00:33:35;;;;;;;19.37;12.60;;;10.20;90.90;;;;;;5073037;28;20466;-56
2024/03/01 00:36:04;;;;;;;18.63;12.30;;;10.20;91.10;;;;;;5076563;28;20451;-55
2024/03/01 00:38:31;;;;;;;14.80;11.40;;;10.20;91.20;;;;;;5076780;28;20950;-56
2024/03/01 00:40:57;;;;;;;16.50;12.40;;;10.20;91.40;;;;;;5077151;28;20455;-56
2024/03/01 00:43:24;;;;;;;16.57;11.60;;;10.20;91.50;;;;;;5077400;28;20465;-56
2024/03/01 00:45:51;;;;;;;14.57;10.63;;;10.10;91.30;;;;;;5076782;28;21013;-56
2024/03/01 00:48:18;;;;;;;14.07;11.40;;;10.10;91.50;;;;;;5077029;28;20444;-56
2024/03/01 00:50:45;;;;;;;14.33;11.10;;;10.10;91.20;;;;;;5076693;28;20448;-56
2024/03/01 00:53:13;;;;;;;16.27;11.40;;;10.10;91.30;;;;;;5076490;28;20480;-56
2024/03/01 00:55:40;;;;;;;20.60;12.90;;;10.00;91.50;;;;;;5076530;28;20429;-56
2024/03/01 00:58:07;;;;;;;16.17;11.13;;;10.00;91.60;;;;;;5076461;28;20448;-56
2024/03/01 01:00:34;;;;;;;15.83;11.43;;;10.00;92.10;;;;;;5077522;28;20448;-56
2024/03/01 01:03:01;;;;;;;16.63;12.40;;;9.90;92.80;;;;;;5076339;28;21052;-56
2024/03/01 01:05:29;;;;;;;14.90;10.73;;;9.90;92.90;;;;;;5076642;28;20469;-56
2024/03/01 01:07:55;;;;;;;16.23;10.30;;;9.90;93.10;;;;;;5076555;28;20462;-56
2024/03/01 01:10:23;;;;;;;14.20;10.73;;;9.80;93.30;;;;;;5077203;28;20484;-56
2024/03/01 01:12:50;;;;;;;18.20;13.17;;;9.80;93.40;;;;;;5076461;28;20491;-56
2024/03/01 01:15:17;;;;;;;15.77;11.40;;;9.80;93.50;;;;;;5076508;28;20447;-56
2024/03/01 01:17:44;;;;;;;15.57;11.50;;;9.80;93.70;;;;;;5076363;28;20444;-56
2024/03/01 01:20:12;;;;;;;13.37;11.10;;;9.90;93.80;;;;;;5076089;28;20445;-56
2024/03/01 01:22:39;;;;;;;21.13;11.70;;;9.80;93.80;;;;;;5076368;28;20547;-56
2024/03/01 01:25:07;;;;;;;18.80;13.07;;;9.80;94.00;;;;;;5076265;28;20810;-57
2024/03/01 01:27:35;;;;;;;13.60;10.30;;;9.90;94.10;;;;;;5076560;28;20448;-56
2024/03/01 01:30:02;;;;;;;21.50;12.90;;;9.90;94.30;;;;;;5076228;28;20475;-56
2024/03/01 01:32:28;;;;;;;15.83;11.80;;;9.90;94.30;;;;;;5075904;28;21061;-56
2024/03/01 01:34:55;;;;;;;15.37;11.93;;;9.90;94.60;;;;;;5076130;28;20451;-56
2024/03/01 01:37:22;;;;;;;13.93;11.47;;;9.90;94.40;;;;;;5076142;28;20444;-56
2024/03/01 01:39:49;;;;;;;18.90;13.30;;;10.00;93.80;;;;;;5076124;28;20451;-56
2024/03/01 01:42:16;;;;;;;16.17;12.23;;;10.00;93.80;;;;;;5075683;28;20982;-56
2024/03/01 01:44:44;;;;;;;16.63;12.77;;;10.00;93.70;;;;;;5076263;28;20440;-57
2024/03/01 01:47:11;;;;;;;16.70;12.43;;;10.00;93.80;;;;;;5074640;28;20444;-56
2024/03/01 01:49:38;;;;;;;18.33;12.50;;;10.00;93.80;;;;;;5076001;28;20527;-56
2024/03/01 01:52:05;;;;;;;17.23;12.47;;;10.00;93.90;;;;;;5075629;28;20483;-56
2024/03/01 01:54:32;;;;;;;20.30;12.93;;;10.00;93.90;;;;;;5075681;28;20545;-56
2024/03/01 01:56:59;;;;;;;16.17;12.00;;;10.00;93.90;;;;;;5076315;28;20440;-56
2024/03/01 01:59:27;;;;;;;18.23;12.80;;;10.00;94.00;;;;;;5076406;28;20532;-56
2024/03/01 02:01:56;;;;;;;17.20;11.70;;;10.00;94.20;;;;;;5075506;28;20433;-56
2024/03/01 02:04:23;;;;;;;17.00;12.70;;;9.90;94.70;;;;;;5075802;28;20451;-56
2024/03/01 02:06:49;;;;;;;13.60;11.90;;;10.00;94.30;;;;;;5075499;28;20455;-56
2024/03/01 02:09:18;;;;;;;18.33;12.77;;;10.00;94.70;;;;;;5075797;28;20472;-56
2024/03/01 02:11:46;;;;;;;15.33;11.30;;;9.90;94.90;;;;;;5075493;28;20507;-56
2024/03/01 02:14:12;;;;;;;15.80;11.57;;;10.00;94.40;;;;;;5075664;28;20478;-56
2024/03/01 02:16:39;;;;;;;17.13;12.07;;;10.00;94.40;;;;;;5075497;28;20484;-56
2024/03/01 02:19:14;;;;;;;15.50;10.80;;;9.90;95.00;;;;;;5075693;28;20524;-56
2024/03/01 02:21:51;;;;;;;13.50;11.57;;;9.90;95.10;;;;;;5075431;28;20630;-56
2024/03/01 02:24:19;;;;;;;13.67;11.10;;;9.90;95.10;;;;;;5075172;28;20892;-56
2024/03/01 02:26:46;;;;;;;13.77;11.07;;;9.90;95.20;;;;;;5075288;28;20444;-56
2024/03/01 02:29:13;;;;;;;13.97;9.93;;;9.90;95.40;;;;;;5075283;28;20480;-56
2024/03/01 02:31:39;;;;;;;16.53;10.63;;;9.90;95.50;;;;;;5075093;28;20437;-56
2024/03/01 02:34:06;;;;;;;17.83;10.10;;;9.90;95.50;;;;;;5074846;28;20891;-56
2024/03/01 02:36:33;;;;;;;16.40;9.57;;;9.90;95.50;;;;;;5075199;28;20445;-56
2024/03/01 02:39:00;;;;;;;14.70;9.87;;;9.90;95.70;;;;;;5074975;28;20447;-56
2024/03/01 02:41:28;;;;;;;13.47;11.43;;;9.90;95.90;;;;;;5074951;28;20444;-56
2024/03/01 02:43:55;;;;;;;15.40;11.47;;;9.90;96.10;;;;;;5075275;28;21025;-56
2024/03/01 02:46:22;;;;;;;16.83;11.60;;;10.00;95.80;;;;;;5074804;28;20444;-56
2024/03/01 02:48:49;;;;;;;20.23;13.40;;;10.00;95.80;;;;;;5074874;28;20444;-56
2024/03/01 02:51:16;;;;;;;20.20;12.27;;;10.00;95.80;;;;;;5074473;28;20452;-56
2024/03/01 02:53:42;;;;;;;17.70;12.80;;;10.00;95.90;;;;;;5074364;28;20494;-56
2024/03/01 02:56:09;;;;;;;15.70;11.20;;;10.00;96.20;;;;;;5074610;28;20440;-56
2024/03/01 02:58:37;;;;;;;13.90;10.43;;;10.00;95.80;;;;;;5074161;28;20450;-56
2024/03/01 03:01:04;;;;;;;13.97;10.47;;;10.00;95.80;;;;;;5074635;28;20441;-56
2024/03/01 03:03:31;;;;;;;13.87;11.33;;;10.00;95.80;;;;;;5074072;28;20997;-56
2024/03/01 03:05:58;;;;;;;15.70;11.20;;;10.00;95.90;;;;;;5074444;28;20468;-56
2024/03/01 03:08:24;;;;;;;15.23;10.83;;;10.00;96.00;;;;;;5074513;28;20451;-56
2024/03/01 03:10:51;;;;;;;15.60;10.77;;;9.90;96.80;;;;;;5074386;28;20486;-56
2024/03/01 03:13:18;;;;;;;15.03;11.23;;;9.90;97.00;;;;;;5074039;28;20488;-56
2024/03/01 03:15:47;;;;;;;13.77;10.03;;;9.90;97.20;;;;;;5074233;28;20449;-56
2024/03/01 03:18:14;;;;;;;16.30;10.57;;;9.80;97.40;;;;;;5074128;28;20469;-56
2024/03/01 03:20:41;;;;;;;15.20;11.03;;;9.80;97.60;;;;;;5073870;28;20453;-56
2024/03/01 03:23:08;;;;;;;12.50;10.00;;;9.80;97.80;;;;;;5073746;28;20841;-57
2024/03/01 03:25:36;;;;;;;15.80;10.40;;;9.80;98.00;;;;;;5074126;28;20447;-56
2024/03/01 03:28:03;;;;;;;13.90;10.50;;;9.80;98.00;;;;;;5074045;28;20436;-56
2024/03/01 03:30:30;;;;;;;15.73;11.20;;;9.80;98.20;;;;;;5073986;28;20448;-56
2024/03/01 03:32:58;;;;;;;14.07;11.03;;;9.80;98.40;;;;;;5073849;28;20476;-56
2024/03/01 03:35:25;;;;;;;13.23;9.83;;;9.80;98.50;;;;;;5073868;28;20440;-56
2024/03/01 03:37:51;;;;;;;13.80;10.97;;;9.80;98.70;;;;;;5073507;28;20451;-56
2024/03/01 03:40:19;;;;;;;17.07;11.90;;;9.80;98.80;;;;;;5073877;28;20441;-56
2024/03/01 03:42:46;;;;;;;16.37;12.23;;;9.80;98.80;;;;;;5073582;28;20552;-56
2024/03/01 03:45:12;;;;;;;16.60;11.80;;;9.80;98.70;;;;;;5073940;28;20451;-56
2024/03/01 03:47:39;;;;;;;18.43;11.20;;;9.80;98.80;;;;;;5073929;28;20452;-56
2024/03/01 03:50:09;;;;;;;15.80;12.03;;;9.80;98.80;;;;;;5073343;28;20455;-56
2024/03/01 03:52:36;;;;;;;17.93;13.57;;;9.80;98.70;;;;;;5073810;28;20483;-56
2024/03/01 03:55:04;;;;;;;16.40;12.10;;;9.70;98.80;;;;;;5073249;28;20968;-56
2024/03/01 03:57:31;;;;;;;15.83;11.90;;;9.70;98.90;;;;;;5073934;28;20455;-56
2024/03/01 03:59:59;;;;;;;16.20;11.07;;;9.70;98.90;;;;;;5073308;28;20476;-56
2024/03/01 04:02:26;;;;;;;16.83;11.90;;;9.70;99.10;;;;;;5073084;28;20547;-56
2024/03/01 04:04:53;;;;;;;15.83;12.00;;;9.70;99.40;;;;;;5073516;28;20440;-56
2024/03/01 04:07:21;;;;;;;15.67;11.50;;;9.60;99.50;;;;;;5073358;28;20441;-56
2024/03/01 04:09:48;;;;;;;15.50;11.80;;;9.60;99.70;;;;;;5072602;28;20452;-56
2024/03/01 04:12:15;;;;;;;18.83;12.37;;;9.60;99.80;;;;;;5073110;28;20471;-56
2024/03/01 04:14:41;;;;;;;17.47;12.63;;;9.60;99.90;;;;;;5074263;28;20849;-56
2024/03/01 04:17:10;;;;;;;18.10;12.03;;;9.70;99.90;;;;;;5073333;28;20453;-56
2024/03/01 04:19:37;;;;;;;14.87;11.93;;;9.70;99.90;;;;;;5073501;28;20451;-56
2024/03/01 04:22:04;;;;;;;18.70;10.40;;;9.70;99.90;;;;;;5073378;28;20436;-56
2024/03/01 04:24:32;;;;;;;16.10;8.67;;;9.70;99.90;;;;;;5073340;28;20436;-56
2024/03/01 04:26:59;;;;;;;11.40;8.63;;;9.80;99.90;;;;;;5072932;28;20447;-56
2024/03/01 04:29:27;;;;;;;10.13;8.07;;;9.80;99.90;;;;;;5073571;28;20441;-56
2024/03/01 04:31:54;;;;;;;14.00;10.47;;;9.80;99.90;;;;;;5073360;28;20443;-56
2024/03/01 04:34:21;;;;;;;10.70;7.70;;;9.80;99.90;;;;;;5073121;28;21028;-56
2024/03/01 04:36:48;;;;;;;12.00;8.30;;;9.90;99.90;;;;;;5073448;28;20440;-57
2024/03/01 04:39:15;;;;;;;10.87;7.47;;;9.90;99.90;;;;;;5073203;28;20453;-56
2024/03/01 04:41:43;;;;;;;9.17;7.23;;;10.00;99.90;;;;;;5073126;28;20524;-56
2024/03/01 04:44:10;;;;;;;9.23;6.73;;;10.00;99.90;;;;;;5073200;28;20487;-56
2024/03/01 04:46:40;;;;;;;9.47;7.67;;;10.10;99.90;;;;;;5073055;28;20440;-56
2024/03/01 04:49:07;;;;;;;9.50;7.00;;;10.10;99.90;;;;;;5072681;28;20839;-56
2024/03/01 04:51:34;;;;;;;9.97;7.37;;;10.10;99.90;;;;;;5072912;28;20441;-56
2024/03/01 04:54:01;;;;;;;10.20;7.63;;;10.10;99.90;;;;;;5072581;28;20484;-56
2024/03/01 04:56:28;;;;;;;12.80;9.13;;;10.10;99.90;;;;;;5072972;28;20539;-56
2024/03/01 04:58:56;;;;;;;12.67;9.30;;;10.10;99.90;;;;;;5072914;28;20444;-56
2024/03/01 05:01:23;;;;;;;9.53;7.63;;;10.10;99.90;;;;;;5072875;28;20528;-56
2024/03/01 05:03:50;;;;;;;10.60;8.13;;;10.10;99.90;;;;;;5072847;28;20461;-56
2024/03/01 05:06:18;;;;;;;11.47;9.13;;;10.10;99.90;;;;;;5072836;28;20473;-56
2024/03/01 05:08:46;;;;;;;10.87;8.77;;;10.20;99.90;;;;;;5072689;28;20437;-56
2024/03/01 05:11:13;;;;;;;10.10;8.30;;;10.10;99.90;;;;;;5072483;28;20864;-56
2024/03/01 05:13:41;;;;;;;10.70;8.53;;;10.20;99.90;;;;;;5072961;28;20495;-55
2024/03/01 05:16:09;;;;;;;10.20;8.27;;;10.20;99.90;;;;;;5073908;28;20535;-56
2024/03/01 05:18:36;;;;;;;12.07;8.40;;;10.20;99.90;;;;;;5073601;28;20817;-56
2024/03/01 05:21:04;;;;;;;11.63;8.57;;;10.20;99.90;;;;;;5074989;28;20514;-56
2024/03/01 05:23:31;;;;;;;11.87;8.23;;;10.20;99.90;;;;;;5076439;28;20982;-56
2024/03/01 05:25:58;;;;;;;12.87;9.50;;;10.20;99.90;;;;;;5076591;28;20871;-56
2024/03/01 05:28:25;;;;;;;14.13;9.47;;;10.20;99.90;;;;;;5076028;28;20814;-56
2024/03/01 05:30:52;;;;;;;13.13;7.30;;;10.30;99.90;;;;;;5076634;28;20441;-56
2024/03/01 05:33:20;;;;;;;8.00;6.13;;;10.30;99.90;;;;;;5076254;28;20484;-56
2024/03/01 05:35:47;;;;;;;10.77;7.27;;;10.30;99.90;;;;;;5076289;28;20814;-56
2024/03/01 05:38:14;;;;;;;6.73;3.47;;;10.30;99.90;;;;;;5076183;28;20448;-56
2024/03/01 05:40:40;;;;;;;2.43;2.23;;;10.30;99.90;;;;;;5076178;28;20451;-56
2024/03/01 05:43:07;;;;;;;0.80;0.77;;;10.30;99.90;;;;;;5076015;28;20453;-56
2024/03/01 05:45:35;;;;;;;1.30;0.80;;;10.10;99.90;;;;;;5076054;28;20444;-55
2024/03/01 05:48:03;;;;;;;1.47;1.10;;;10.00;99.90;;;;;;5076162;28;20460;-55
2024/03/01 05:50:31;;;;;;;1.50;1.40;;;9.90;99.90;;;;;;5076118;28;20488;-56
2024/03/01 05:52:59;;;;;;;1.30;1.20;;;9.70;99.90;;;;;;5076134;28;20488;-56
2024/03/01 05:55:26;;;;;;;1.73;1.63;;;9.70;99.90;;;;;;5075889;28;20528;-56
2024/03/01 05:57:53;;;;;;;2.77;2.07;;;9.60;99.90;;;;;;5075778;28;20444;-56
2024/03/01 06:00:25;;;;;;;2.83;2.63;;;9.60;99.90;;;;;;5076311;28;20536;-56
2024/03/01 06:02:52;;;;;;;3.00;2.40;;;9.50;99.90;;;;;;5075766;28;20476;-56
2024/03/01 06:05:19;;;;;;;2.33;2.13;;;9.50;99.90;;;;;;5075780;28;20437;-56
2024/03/01 06:07:47;;;;;;;2.90;2.63;;;9.40;99.90;;;;;;5075321;28;20445;-55
2024/03/01 06:10:14;;;;;;;3.27;2.53;;;9.30;99.90;;;;;;5075545;28;20441;-56
2024/03/01 06:12:41;;;;;;;3.07;2.77;;;9.30;99.90;;;;;;5075646;28;20467;-56
2024/03/01 06:15:08;;;;;;;3.50;3.20;;;9.20;99.90;;;;;;5075484;28;20437;-56
2024/03/01 06:17:36;;;;;;;3.10;2.80;;;9.10;99.90;;;;;;5075456;28;20453;-56
2024/03/01 06:20:05;;;;;;;3.33;3.10;;;9.10;99.90;;;;;;5075106;28;20449;-56
2024/03/01 06:22:32;;;;;;;4.43;4.03;;;9.10;99.90;;;;;;5075415;28;20464;-56
2024/03/01 06:25:00;;;;;;;5.47;5.00;;;9.00;99.90;;;;;;5075630;28;20461;-56
2024/03/01 06:27:27;;;;;;;4.53;3.90;;;9.00;99.90;;;;;;5074896;28;20960;-56
2024/03/01 06:29:54;;;;;;;5.10;4.60;;;9.00;99.90;;;;;;5075243;28;20444;-56
2024/03/01 06:32:21;;;;;;;5.00;4.60;;;9.00;99.90;;;;;;5074992;28;20466;-56
2024/03/01 06:34:48;;;;;;;5.40;4.90;;;9.00;99.90;;;;;;5075092;28;20491;-56
2024/03/01 06:37:16;;;;;;;5.23;4.73;;;9.00;99.90;;;;;;5075112;28;20449;-56
2024/03/01 06:39:43;;;;;;;6.43;4.90;;;9.00;99.90;;;;;;5075035;28;20444;-56
2024/03/01 06:42:11;;;;;;;4.63;4.23;;;9.00;99.90;;;;;;5074847;28;20467;-56
2024/03/01 06:44:38;;;;;;;5.47;4.30;;;8.90;99.90;;;;;;5074925;28;20441;-56
2024/03/01 06:47:05;;;;;;;4.77;4.27;;;9.00;99.90;;;;;;5074485;28;20454;-56
2024/03/01 06:49:32;;;;;;;6.00;5.40;;;9.00;99.90;;;;;;5074899;28;20447;-56
2024/03/01 06:51:58;;;;;;;5.13;4.60;;;9.00;99.90;;;;;;5074330;28;20448;-56
2024/03/01 06:54:25;;;;;;;5.20;4.70;;;9.00;99.90;;;;;;5074321;28;20488;-56
2024/03/01 06:56:52;;;;;;;5.90;5.30;;;9.10;99.90;;;;;;5074371;28;20454;-56
2024/03/01 06:59:20;;;;;;;6.90;5.13;;;9.10;99.90;;;;;;5074556;28;20942;-56
2024/03/01 07:01:47;;;;;;;4.77;4.13;;;9.10;99.90;;;;;;5074497;28;20445;-56
2024/03/01 07:04:13;;;;;;;4.50;4.10;;;9.10;99.90;;;;;;5074460;28;20466;-56
2024/03/01 07:06:40;;;;;;;5.00;4.43;;;9.20;99.90;;;;;;5074486;28;20540;-56
2024/03/01 07:09:07;;;;;;;4.33;3.93;;;9.20;99.90;;;;;;5074346;28;20445;-56
2024/03/01 07:11:35;;;;;;;4.70;4.00;;;9.20;99.90;;;;;;5075181;28;20445;-56
2024/03/01 07:14:01;;;;;;;4.10;3.67;;;9.20;99.90;;;;;;5073822;28;20514;-56
2024/03/01 07:16:29;;;;;;;4.37;3.90;;;9.20;99.90;;;;;;5073949;28;20450;-56
2024/03/01 07:18:57;;;;;;;3.73;3.33;;;9.20;99.90;;;;;;5074212;28;20479;-56
2024/03/01 07:21:23;;;;;;;3.87;3.47;;;9.20;99.90;;;;;;5074150;28;20444;-56
2024/03/01 07:23:50;;;;;;;4.67;4.27;;;9.20;99.90;;;;;;5073738;28;20465;-56
2024/03/01 07:26:17;;;;;;;3.73;3.43;;;9.30;99.90;;;;;;5073723;28;20444;-56
2024/03/01 07:28:44;;;;;;;4.20;3.67;;;9.30;99.90;;;;;;5073952;28;20467;-56
2024/03/01 07:31:10;;;;;;;3.57;3.20;;;9.30;99.90;;;;;;5073927;28;20555;-56
2024/03/01 07:33:39;;;;;;;3.70;3.40;;;9.40;99.90;;;;;;5073798;28;20821;-55
2024/03/01 07:36:06;;;;;;;3.73;3.43;;;9.50;99.90;;;;;;5073892;28;20524;-56
2024/03/01 07:38:33;;;;;;;4.13;3.07;;;9.60;99.90;;;;;;5073527;28;20514;-56
2024/03/01 07:41:00;;;;;;;3.80;3.47;;;9.70;99.90;;;;;;5073881;28;20440;-56
2024/03/01 07:43:28;;;;;;;4.20;2.87;;;9.80;99.90;;;;;;5073331;28;20979;-56
2024/03/01 07:45:55;;;;;;;2.83;2.63;;;10.00;99.90;;;;;;5073739;28;20449;-56
2024/03/01 07:48:22;;;;;;;5.40;2.70;;;10.10;99.90;;;;;;5073951;28;20443;-56
2024/03/01 07:50:50;;;;;;;2.80;2.60;;;10.20;99.90;;;;;;5073388;28;20448;-56
2024/03/01 07:53:17;;;;;;;3.00;2.33;;;10.20;99.90;;;;;;5073368;28;20461;-56
2024/03/01 07:55:44;;;;;;;2.67;2.47;;;10.20;99.90;;;;;;5073594;28;20433;-56
2024/03/01 07:58:10;;;;;;;2.40;2.20;;;10.20;99.90;;;;;;5073624;28;20848;-56
2024/03/01 08:00:37;;;;;;;2.77;2.57;;;10.20;99.90;;;;;;5073573;28;20447;-56
2024/03/01 08:03:09;;;;;;;4.27;2.90;;;10.30;99.90;;;;;;5073395;28;20469;-55
2024/03/01 08:05:36;;;;;;;3.40;3.10;;;10.30;99.90;;;;;;5073541;28;20444;-56
2024/03/01 08:08:05;;;;;;;3.03;2.80;;;10.40;99.90;;;;;;5073439;28;20452;-56
2024/03/01 08:10:33;;;;;;;3.40;3.10;;;10.40;99.90;;;;;;5073339;28;20440;-56
2024/03/01 08:13:01;;;;;;;3.60;3.30;;;10.50;99.90;;;;;;5073298;28;20471;-56
2024/03/01 08:15:30;;;;;;;4.10;3.03;;;10.50;99.90;;;;;;5073551;28;20480;-56
2024/03/01 08:17:57;;;;;;;3.70;3.03;;;10.70;99.90;;;;;;5073162;28;20938;-56
2024/03/01 08:21:03;;;;;;;3.03;2.80;;;10.70;99.90;;;;;;5073243;28;20455;-57
2024/03/01 08:23:38;;;;;;;4.40;3.07;;;10.90;99.90;;;;;;5037928;28;20591;-57
2024/03/01 08:26:11;;;;;;;3.50;2.80;;;10.80;98.70;;;;;;5074279;28;20428;-56
2024/03/01 08:28:40;;;;;;;5.10;3.83;;;10.70;98.80;;;;;;5073895;28;20529;-56
2024/03/01 08:31:19;;;;;;;7.50;4.10;;;10.60;98.90;;;;;;5073171;28;20540;-56
2024/03/01 08:33:47;;;;;;;3.50;3.20;;;10.50;98.70;;;;;;5073373;28;20461;-56
2024/03/01 08:36:14;;;;;;;6.63;3.97;;;10.40;99.00;;;;;;5073113;28;21034;-56
2024/03/01 08:39:15;;;;;;;4.90;4.17;;;10.20;98.60;;;;;;5073054;28;20452;-56
2024/03/01 08:41:44;;;;;;;5.00;3.80;;;10.10;98.80;;;;;;5074054;28;20447;-56
2024/03/01 08:44:51;;;;;;;4.63;3.70;;;10.00;99.10;;;;;;5073119;28;20551;-56
2024/03/01 08:47:25;;;;;;;8.50;4.10;;;10.00;99.40;;;;;;5070955;28;20831;-56
2024/03/01 08:50:36;;;;;;;4.33;3.90;;;10.10;99.80;;;;;;5073131;28;20858;-56
2024/03/01 08:53:10;;;;;;;5.60;4.60;;;10.30;99.40;;;;;;5072605;28;20460;-56
2024/03/01 08:55:43;;;;;;;5.30;4.20;;;10.40;99.40;;;;;;5074315;28;20481;-56
2024/03/01 08:58:16;;;;;;;5.20;3.70;;;10.50;99.00;;;;;;5076839;28;20449;-56
2024/03/01 09:00:50;;;;;;;6.00;4.17;;;10.60;98.80;;;;;;5077066;28;20424;-56
2024/03/01 09:03:23;;;;;;;7.53;4.60;;;10.70;98.50;;;;;;5076817;28;20463;-56
2024/03/01 09:05:52;;;;;;;5.80;3.73;;;10.80;98.30;;;;;;5076572;28;20859;-56
2024/03/01 09:08:23;;;;;;;5.20;4.07;;;10.90;98.20;;;;;;5076781;28;20453;-56
2024/03/01 09:10:54;;;;;;;6.67;4.47;;;11.00;98.10;;;;;;5076640;28;20421;-56
2024/03/01 09:13:21;;;;;;;5.40;4.20;;;11.10;97.90;;;;;;5076241;28;20460;-56
2024/03/01 09:15:48;;;;;;;7.73;4.17;;;11.20;97.80;;;;;;5076557;28;20480;-56
2024/03/01 09:18:50;;;;;;;5.93;4.50;;;11.20;97.00;;;;;;5076320;28;20445;-56
2024/03/01 09:21:43;;;;;;;6.27;4.30;;;11.20;97.00;;;;;;5076178;28;20961;-56
2024/03/01 09:24:17;;;;;;;6.43;4.93;;;11.30;97.20;;;;;;5076418;28;20495;-56
2024/03/01 09:26:46;;;;;;;8.63;5.90;;;11.30;97.30;;;;;;5076407;28;20455;-56
2024/03/01 09:29:33;;;;;;;11.40;5.60;;;11.40;97.50;;;;;;5076304;28;20523;-56
2024/03/01 09:32:01;;;;;;;9.83;6.20;;;11.50;97.20;;;;;;5076167;28;20512;-57
2024/03/01 09:34:34;;;;;;;9.20;5.30;;;11.70;97.20;;;;;;5075897;28;20483;-56
2024/03/01 09:37:01;;;;;;;7.53;4.83;;;11.90;97.10;;;;;;5076286;28;20518;-54
2024/03/01 09:39:30;;;;;;;8.60;5.20;;;12.00;96.30;;;;;;5075882;28;20448;-56
2024/03/01 09:42:13;;;;;;;4.33;3.93;;;12.00;96.00;;;;;;5076098;28;20448;-56
2024/03/01 09:44:53;;;;;;;4.63;3.73;;;12.10;95.90;;;;;;5076071;28;20440;-56
2024/03/01 09:47:34;;;;;;;4.97;4.17;;;12.20;95.40;;;;;;5075729;28;20789;-56
2024/03/01 09:50:16;;;;;;;5.00;3.70;;;12.20;95.50;;;;;;5075977;28;20421;-56
2024/03/01 09:52:51;;;;;;;7.40;3.63;;;12.10;95.00;;;;;;5075888;28;20502;-56
2024/03/01 09:55:26;;;;;;;7.53;3.77;;;12.10;95.10;;;;;;5075667;28;20484;-56
2024/03/01 09:58:04;;;;;;;3.63;3.33;;;12.10;94.80;;;;;;5075855;28;20442;-57
2024/03/01 10:00:32;;;;;;;3.30;2.80;;;12.10;94.80;;;;;;5075812;28;20839;-57
2024/03/01 10:03:12;;;;;;;3.00;2.43;;;12.10;94.20;;;;;;5075709;28;20469;-57
2024/03/01 10:06:14;;;;;;;2.80;2.60;;;12.10;93.70;;;;;;5075484;28;20899;-56
2024/03/01 10:09:02;;;;;;;3.40;2.20;;;12.10;93.50;;;;;;5074853;28;20519;-57
2024/03/01 10:11:44;;;;;;;5.60;1.73;;;12.20;93.40;;;;;;5075885;28;20784;-57
2024/03/01 10:14:26;;;;;;;2.70;2.13;;;12.30;93.30;;;;;;5075306;28;20921;-56
2024/03/01 10:17:04;;;;;;;1.90;1.80;;;12.40;92.70;;;;;;5075631;28;20799;-57
2024/03/01 10:19:55;;;;;;;1.60;1.50;;;12.50;92.70;;;;;;5075487;28;20425;-57
2024/03/01 10:22:37;;;;;;;1.07;1.07;;;12.80;92.40;;;;;;5075053;28;20469;-57
2024/03/01 10:25:22;;;;;;;1.90;1.00;;;12.90;90.50;;;;;;5075362;28;20439;-56
2024/03/01 10:27:52;;;;;;;1.03;0.93;;;13.00;89.10;;;;;;5075328;28;20444;-56
2024/03/01 10:30:21;;;;;;;0.87;0.70;;;13.10;89.00;;;;;;5075118;28;20425;-57
2024/03/01 10:33:10;;;;;;;1.90;0.80;;;13.30;87.60;;;;;;5075264;28;20471;-57
2024/03/01 10:35:45;;;;;;;0.93;0.40;;;13.60;87.40;;;;;;5075054;28;20471;-57
2024/03/01 10:38:21;;;;;;;1.43;0.63;;;14.00;84.50;;;;;;5075125;28;20508;-57
2024/03/01 10:40:55;;;;;;;0.93;0.63;;;14.30;82.40;;;;;;5074763;28;20432;-57
2024/03/01 10:43:28;;;;;;;2.50;0.83;;;14.70;81.10;;;;;;5074908;28;20456;-57
2024/03/01 10:46:10;;;;;;;2.00;0.90;;;15.20;78.10;;;;;;5074915;28;20512;-57
2024/03/01 10:48:43;;;;;;;1.40;0.80;;;15.50;76.30;;;;;;5074993;28;20426;-57
2024/03/01 10:51:14;;;;;;;1.60;1.13;;;15.80;73.30;;;;;;5074766;28;20425;-57
2024/03/01 10:53:48;;;;;;;1.10;0.80;;;15.80;71.00;;;;;;5074561;28;20560;-57
2024/03/01 10:56:16;;;;;;;1.13;1.00;;;15.80;70.60;;;;;;5074638;28;20467;-57
2024/03/01 10:58:50;;;;;;;1.43;0.90;;;15.90;70.70;;;;;;5074427;28;20447;-57
2024/03/01 11:01:28;;;;;;;3.07;0.70;;;15.90;69.60;;;;;;5074565;28;20774;-57
2024/03/01 11:04:01;;;;;;;1.70;0.90;;;15.60;70.40;;;;;;5074541;28;20466;-56
2024/03/01 11:06:35;;;;;;;1.10;0.70;;;15.40;70.40;;;;;;5074495;28;20513;-57
2024/03/01 11:09:10;;;;;;;1.00;0.90;;;15.10;70.70;;;;;;5074521;28;20428;-56
2024/03/01 11:11:44;;;;;;;2.30;0.70;;;14.90;71.20;;;;;;5074404;28;20428;-57
2024/03/01 11:14:14;;;;;;;3.23;0.97;;;14.90;73.50;;;;;;5074269;28;20529;-56
2024/03/01 11:16:45;;;;;;;2.50;0.90;;;15.40;72.10;;;;;;5074300;28;20465;-57
2024/03/01 11:19:18;;;;;;;1.10;0.73;;;16.10;68.70;;;;;;5073970;28;20796;-57
2024/03/01 11:21:51;;;;;;;0.60;0.60;;;16.60;66.70;;;;;;5074433;28;20433;-57
2024/03/01 11:24:24;;;;;;;0.70;0.70;;;16.90;65.70;;;;;;5073999;28;20531;-57
2024/03/01 11:26:56;;;;;;;0.80;0.80;;;17.10;61.70;;;;;;5073840;28;20928;-57
2024/03/01 11:29:36;;;;;;;0.70;0.60;;;17.00;61.30;;;;;;5074146;28;20841;-57
2024/03/01 11:32:14;;;;;;;1.90;1.00;;;17.30;61.80;;;;;;5073959;28;20432;-57
2024/03/01 11:34:53;;;;;;;1.70;1.00;;;17.40;59.00;;;;;;5074025;28;20439;-56
2024/03/01 11:37:27;;;;;;;1.57;1.00;;;17.10;59.10;;;;;;5075456;28;20413;-56
2024/03/01 11:40:05;;;;;;;1.03;0.90;;;17.10;60.80;;;;;;5075200;28;20432;-57
2024/03/01 11:42:39;;;;;;;3.00;0.73;;;17.30;58.50;;;;;;5074714;28;20471;-57
2024/03/01 11:45:17;;;;;;;1.30;1.17;;;17.40;57.50;;;;;;5074484;28;20428;-57
2024/03/01 11:48:02;;;;;;;1.60;1.10;;;17.60;56.40;;;;;;5074242;28;20468;-57
2024/03/01 11:50:41;;;;;;;1.53;1.20;;;17.80;55.30;;;;;;5073568;28;20930;-57
2024/03/01 11:53:53;;;;;;;1.63;0.90;;;17.80;55.60;;;;;;5074391;28;20559;-55
2024/03/01 11:56:43;;;;;;;3.40;1.17;;;17.80;56.20;;;;;;5073824;28;20488;-55
2024/03/01 11:59:21;;;;;;;2.50;1.03;;;18.00;55.00;;;;;;5073479;28;20432;-55
2024/03/01 12:01:54;;;;;;;0.80;0.80;;;18.00;53.60;;;;;;5074158;28;20490;-56
2024/03/01 12:04:39;;;;;;;1.77;0.83;;;18.00;53.80;;;;;;5073896;28;20421;-55
2024/03/01 12:07:27;;;;;;;2.13;0.90;;;17.90;54.10;;;;;;5073741;28;20433;-55
2024/03/01 12:10:05;;;;;;;1.97;0.97;;;17.70;54.30;;;;;;5073963;28;20433;-55
2024/03/01 12:12:42;;;;;;;1.90;0.90;;;17.80;54.40;;;;;;5073855;28;20543;-55
2024/03/01 12:15:13;;;;;;;1.83;0.90;;;17.70;54.40;;;;;;5073621;28;20473;-55
2024/03/01 12:17:50;;;;;;;1.13;0.70;;;17.80;54.30;;;;;;5073726;28;20421;-55
2024/03/01 12:20:18;;;;;;;2.73;0.70;;;18.00;53.60;;;;;;5073277;28;20810;-55
2024/03/01 12:22:55;;;;;;;1.27;0.67;;;18.20;52.90;;;;;;5073444;28;20464;-55
2024/03/01 12:25:25;;;;;;;2.20;0.60;;;18.30;51.90;;;;;;5073463;28;20507;-55
2024/03/01 12:28:19;;;;;;;1.40;1.30;;;18.10;51.40;;;;;;5073084;28;20879;-55
2024/03/01 12:31:00;;;;;;;1.63;0.70;;;17.90;51.30;;;;;;5072620;28;20425;-55
2024/03/01 12:33:54;;;;;;;5.10;0.80;;;17.80;50.90;;;;;;5073180;28;20464;-55
2024/03/01 12:36:34;;;;;;;1.73;0.57;;;17.70;51.00;;;;;;5073033;28;20465;-55
2024/03/01 12:39:04;;;;;;;0.93;0.83;;;17.70;50.70;;;;;;5073209;28;20793;-54
2024/03/01 12:41:42;;;;;;;3.03;0.80;;;17.80;50.60;;;;;;5073110;28;20444;-55
2024/03/01 12:44:19;;;;;;;1.70;0.60;;;17.80;50.00;;;;;;5073374;28;20460;-55
2024/03/01 12:47:11;;;;;;;1.27;0.60;;;17.80;50.50;;;;;;5073453;28;20495;-55
2024/03/01 12:49:52;;;;;;;2.93;1.20;;;17.90;51.00;;;;;;5073194;28;20448;-55
2024/03/01 12:52:44;;;;;;;1.57;0.60;;;18.30;50.10;;;;;;5072902;28;20503;-55
2024/03/01 12:55:20;;;;;;;1.67;1.00;;;18.50;49.50;;;;;;5072421;28;20490;-55
2024/03/01 12:57:57;;;;;;;1.23;0.70;;;19.00;49.50;;;;;;5072759;28;20799;-55
2024/03/01 13:00:29;;;;;;;2.10;0.90;;;19.50;48.70;;;;;;5072992;28;20436;-55
2024/03/01 13:03:07;;;;;;;1.63;1.00;;;19.80;47.70;;;;;;5072918;28;20471;-55